John James Audubon — WDE8037 — position and weather

sailwx.info

Track history (hours):
 
Tides and Currents Weather Stations Pressure Air Temp Water Temp Dewpoint Dewpoint Depression Visibility Wind Speed Wind Dir Waves Ship Positions

John James Audubon

Owner: Statue Cruises, Jersey City, NJ. More information available from US FCC via Universal Licensing System and Coast Guard Vessel Documentation Center.

Last reported at 2015-Mar-25 21:33 UTC. Time now 2015-Mar-27 15:41 UTC.
Position N 40°42' W 074°01'.

Length 37 m.

Type: Ship. MMSI: 367400770.

Date/timePositionNaut miles runAvg speedWind from/ knotsBaromVisibWave heightAir tempDewpointWater temp
2015-Mar-25 21:33N 40°42' W 074°01'0 0.4
2015-Mar-25 20:33N 40°42' W 074°01'1 1.1
2015-Mar-25 19:33N 40°42' W 074°00'0 0.0
2015-Mar-25 18:33N 40°42' W 074°00'2 2.0
2015-Mar-25 17:33N 40°41' W 074°03'2 2.0
2015-Mar-25 16:33N 40°42' W 074°00'0 0.0
2015-Mar-25 15:32N 40°42' W 074°00'2 1.9
2015-Mar-25 14:33N 40°41' W 074°02'1 1.2
2015-Mar-25 13:33N 40°42' W 074°01'2 1.7
2015-Mar-25 12:33N 40°44' W 074°01'0 0.0
2015-Mar-25 11:33N 40°44' W 074°01'0 0.0
2015-Mar-24 22:34N 40°44' W 074°01'2 1.6
2015-Mar-24 21:33N 40°42' W 074°00'2 1.9
2015-Mar-24 20:34N 40°41' W 074°02'2 1.9
2015-Mar-24 19:34N 40°42' W 074°00'0 0.0
2015-Mar-24 18:33N 40°42' W 074°00'2 1.8
2015-Mar-24 17:33N 40°41' W 074°02'2 1.8
2015-Mar-24 16:33N 40°42' W 074°00'0 0.0
2015-Mar-24 15:33N 40°42' W 074°00'2 1.9
2015-Mar-24 14:33N 40°41' W 074°02'1 1.2
2015-Mar-24 13:33N 40°42' W 074°01'2 1.9
2015-Mar-24 12:33N 40°44' W 074°01'1 0.1
2015-Mar-23 21:33N 40°43' W 074°01'2 1.7
2015-Mar-23 20:33N 40°41' W 074°02'1 1.4
2015-Mar-23 19:33N 40°42' W 074°00'0 0.0
2015-Mar-23 18:33N 40°42' W 074°00'2 1.5
2015-Mar-23 17:33N 40°41' W 074°02'2 1.5
2015-Mar-23 16:30N 40°42' W 074°00'0 0.0
2015-Mar-23 15:33N 40°42' W 074°00'2 1.7
2015-Mar-23 14:33N 40°42' W 074°02'1 1.3
2015-Mar-23 13:33N 40°43' W 074°01'1 1.4
2015-Mar-23 12:33N 40°44' W 074°01'0 0.0
2015-Mar-22 21:33N 40°44' W 074°01'2 2.3
2015-Mar-22 20:33N 40°42' W 074°01'1 1.2
2015-Mar-22 19:33N 40°42' W 074°00'0 0.0
2015-Mar-22 18:33N 40°42' W 074°00'2 1.6
2015-Mar-22 17:33N 40°41' W 074°02'2 1.6
2015-Mar-22 16:33N 40°42' W 074°00'0 0.0
2015-Mar-22 15:33N 40°42' W 074°00'2 2.0
2015-Mar-22 14:33N 40°41' W 074°02'3 2.6
2015-Mar-22 13:33N 40°44' W 074°01'0 0.4
2015-Mar-22 12:33N 40°44' W 074°01'0 0.0
2015-Mar-21 23:33N 40°44' W 074°01'2 1.7
2015-Mar-21 22:32N 40°43' W 074°02'1 1.0
2015-Mar-21 21:33N 40°42' W 074°01'1 1.4
2015-Mar-21 20:33N 40°41' W 074°03'2 2.0
2015-Mar-21 19:33N 40°42' W 074°00'0 0.0
2015-Mar-21 18:33N 40°42' W 074°00'2 1.7
2015-Mar-21 17:33N 40°42' W 074°02'2 1.9
2015-Mar-21 16:33N 40°42' W 073°60'0 0.2
2015-Mar-21 15:33N 40°42' W 074°00'1 0.6
2015-Mar-21 14:33N 40°42' W 074°01'1 1.0
2015-Mar-21 13:33N 40°43' W 074°01'0 0.0
2015-Mar-20 21:33N 40°43' W 074°01'2 1.9
2015-Mar-20 20:33N 40°41' W 074°02'2 1.8
2015-Mar-20 19:33N 40°42' W 074°00'0 0.0
2015-Mar-20 18:33N 40°42' W 074°00'2 2.1
2015-Mar-20 17:33N 40°41' W 074°02'2 2.1
2015-Mar-20 16:33N 40°42' W 074°00'0 0.0
2015-Mar-20 15:33N 40°42' W 074°00'2 1.9
2015-Mar-20 14:32N 40°41' W 074°02'1 1.4
2015-Mar-20 13:33N 40°42' W 074°01'2 1.9
2015-Mar-20 12:33N 40°44' W 074°01'1 0.1
2015-Mar-19 23:34N 40°43' W 074°01'0 0.1
2015-Mar-19 22:33N 40°43' W 074°01'1 0.7
2015-Mar-19 21:33N 40°44' W 074°01'2 2.1
2015-Mar-19 20:34N 40°42' W 074°01'1 0.7
2015-Mar-19 19:27N 40°42' W 074°00'0 0.0
2015-Mar-19 18:33N 40°42' W 074°00'2 1.9
2015-Mar-19 17:33N 40°41' W 074°02'2 1.9
2015-Mar-19 16:33N 40°42' W 074°00'0 0.0
2015-Mar-19 15:33N 40°42' W 074°00'2 2.1
2015-Mar-19 14:33N 40°41' W 074°02'2 1.6
2015-Mar-19 13:33N 40°42' W 074°01'2 0.1
2015-Mar-18 22:33N 40°44' W 074°01'2 1.6
2015-Mar-18 21:34N 40°42' W 074°00'2 1.9
2015-Mar-18 20:34N 40°41' W 074°02'2 1.8
2015-Mar-18 19:32N 40°42' W 074°00'0 0.0
2015-Mar-18 18:34N 40°42' W 074°00'1 1.4
2015-Mar-18 17:34N 40°41' W 074°02'1 1.2
2015-Mar-18 16:23N 40°42' W 074°00'0 0.0
2015-Mar-18 15:33N 40°42' W 074°00'2 2.2
2015-Mar-18 14:34N 40°41' W 074°03'2 1.5
2015-Mar-18 13:34N 40°43' W 074°02'2 1.8
2015-Mar-18 12:34N 40°44' W 074°01'0 0.0
2015-Mar-17 21:33N 40°44' W 074°01'3 2.5
2015-Mar-17 20:33N 40°41' W 074°02'1 1.5
2015-Mar-17 19:33N 40°42' W 074°00'0 0.0
2015-Mar-17 18:33N 40°42' W 074°00'1 0.9
2015-Mar-17 17:33N 40°42' W 074°01'1 0.9
2015-Mar-17 16:33N 40°42' W 074°00'0 0.0
2015-Mar-17 15:33N 40°42' W 074°00'2 1.6
2015-Mar-17 14:33N 40°42' W 074°02'3 2.5
2015-Mar-17 13:33N 40°44' W 074°01'  
Track history (hours):
 
Tides and Currents Weather Stations Pressure Air Temp Water Temp Dewpoint Dewpoint Depression Visibility Wind Speed Wind Dir Waves Ship Positions

John James Audubon

Owner: Statue Cruises, Jersey City, NJ. More information available from US FCC via Universal Licensing System and Coast Guard Vessel Documentation Center.

Last reported at 2015-Mar-25 21:33 UTC. Time now 2015-Mar-27 15:41 UTC.
Position N 40°42' W 074°01'.

Length 37 m.

Type: Ship. MMSI: 367400770.

Date/timePositionNaut miles runAvg speedWind from/ knotsBaromVisibWave heightAir tempDewpointWater temp
2015-Mar-25 21:33N 40°42' W 074°01'0 0.4
2015-Mar-25 20:33N 40°42' W 074°01'1 1.1
2015-Mar-25 19:33N 40°42' W 074°00'0 0.0
2015-Mar-25 18:33N 40°42' W 074°00'2 2.0
2015-Mar-25 17:33N 40°41' W 074°03'2 2.0
2015-Mar-25 16:33N 40°42' W 074°00'0 0.0
2015-Mar-25 15:32N 40°42' W 074°00'2 1.9
2015-Mar-25 14:33N 40°41' W 074°02'1 1.2
2015-Mar-25 13:33N 40°42' W 074°01'2 1.7
2015-Mar-25 12:33N 40°44' W 074°01'0 0.0
2015-Mar-25 11:33N 40°44' W 074°01'0 0.0
2015-Mar-24 22:34N 40°44' W 074°01'2 1.6
2015-Mar-24 21:33N 40°42' W 074°00'2 1.9
2015-Mar-24 20:34N 40°41' W 074°02'2 1.9
2015-Mar-24 19:34N 40°42' W 074°00'0 0.0
2015-Mar-24 18:33N 40°42' W 074°00'2 1.8
2015-Mar-24 17:33N 40°41' W 074°02'2 1.8
2015-Mar-24 16:33N 40°42' W 074°00'0 0.0
2015-Mar-24 15:33N 40°42' W 074°00'2 1.9
2015-Mar-24 14:33N 40°41' W 074°02'1 1.2
2015-Mar-24 13:33N 40°42' W 074°01'2 1.9
2015-Mar-24 12:33N 40°44' W 074°01'1 0.1
2015-Mar-23 21:33N 40°43' W 074°01'2 1.7
2015-Mar-23 20:33N 40°41' W 074°02'1 1.4
2015-Mar-23 19:33N 40°42' W 074°00'0 0.0
2015-Mar-23 18:33N 40°42' W 074°00'2 1.5
2015-Mar-23 17:33N 40°41' W 074°02'2 1.5
2015-Mar-23 16:30N 40°42' W 074°00'0 0.0
2015-Mar-23 15:33N 40°42' W 074°00'2 1.7
2015-Mar-23 14:33N 40°42' W 074°02'1 1.3
2015-Mar-23 13:33N 40°43' W 074°01'1 1.4
2015-Mar-23 12:33N 40°44' W 074°01'0 0.0
2015-Mar-22 21:33N 40°44' W 074°01'2 2.3
2015-Mar-22 20:33N 40°42' W 074°01'1 1.2
2015-Mar-22 19:33N 40°42' W 074°00'0 0.0
2015-Mar-22 18:33N 40°42' W 074°00'2 1.6
2015-Mar-22 17:33N 40°41' W 074°02'2 1.6
2015-Mar-22 16:33N 40°42' W 074°00'0 0.0
2015-Mar-22 15:33N 40°42' W 074°00'2 2.0
2015-Mar-22 14:33N 40°41' W 074°02'3 2.6
2015-Mar-22 13:33N 40°44' W 074°01'0 0.4
2015-Mar-22 12:33N 40°44' W 074°01'0 0.0
2015-Mar-21 23:33N 40°44' W 074°01'2 1.7
2015-Mar-21 22:32N 40°43' W 074°02'1 1.0
2015-Mar-21 21:33N 40°42' W 074°01'1 1.4
2015-Mar-21 20:33N 40°41' W 074°03'2 2.0
2015-Mar-21 19:33N 40°42' W 074°00'0 0.0
2015-Mar-21 18:33N 40°42' W 074°00'2 1.7
2015-Mar-21 17:33N 40°42' W 074°02'2 1.9
2015-Mar-21 16:33N 40°42' W 073°60'0 0.2
2015-Mar-21 15:33N 40°42' W 074°00'1 0.6
2015-Mar-21 14:33N 40°42' W 074°01'1 1.0
2015-Mar-21 13:33N 40°43' W 074°01'0 0.0
2015-Mar-20 21:33N 40°43' W 074°01'2 1.9
2015-Mar-20 20:33N 40°41' W 074°02'2 1.8
2015-Mar-20 19:33N 40°42' W 074°00'0 0.0
2015-Mar-20 18:33N 40°42' W 074°00'2 2.1
2015-Mar-20 17:33N 40°41' W 074°02'2 2.1
2015-Mar-20 16:33N 40°42' W 074°00'0 0.0
2015-Mar-20 15:33N 40°42' W 074°00'2 1.9
2015-Mar-20 14:32N 40°41' W 074°02'1 1.4
2015-Mar-20 13:33N 40°42' W 074°01'2 1.9
2015-Mar-20 12:33N 40°44' W 074°01'1 0.1
2015-Mar-19 23:34N 40°43' W 074°01'0 0.1
2015-Mar-19 22:33N 40°43' W 074°01'1 0.7
2015-Mar-19 21:33N 40°44' W 074°01'2 2.1
2015-Mar-19 20:34N 40°42' W 074°01'1 0.7
2015-Mar-19 19:27N 40°42' W 074°00'0 0.0
2015-Mar-19 18:33N 40°42' W 074°00'2 1.9
2015-Mar-19 17:33N 40°41' W 074°02'2 1.9
2015-Mar-19 16:33N 40°42' W 074°00'0 0.0
2015-Mar-19 15:33N 40°42' W 074°00'2 2.1
2015-Mar-19 14:33N 40°41' W 074°02'2 1.6
2015-Mar-19 13:33N 40°42' W 074°01'2 0.1
2015-Mar-18 22:33N 40°44' W 074°01'2 1.6
2015-Mar-18 21:34N 40°42' W 074°00'2 1.9
2015-Mar-18 20:34N 40°41' W 074°02'2 1.8
2015-Mar-18 19:32N 40°42' W 074°00'0 0.0
2015-Mar-18 18:34N 40°42' W 074°00'1 1.4
2015-Mar-18 17:34N 40°41' W 074°02'1 1.2
2015-Mar-18 16:23N 40°42' W 074°00'0 0.0
2015-Mar-18 15:33N 40°42' W 074°00'2 2.2
2015-Mar-18 14:34N 40°41' W 074°03'2 1.5
2015-Mar-18 13:34N 40°43' W 074°02'2 1.8
2015-Mar-18 12:34N 40°44' W 074°01'0 0.0
2015-Mar-17 21:33N 40°44' W 074°01'3 2.5
2015-Mar-17 20:33N 40°41' W 074°02'1 1.5
2015-Mar-17 19:33N 40°42' W 074°00'0 0.0
2015-Mar-17 18:33N 40°42' W 074°00'1 0.9
2015-Mar-17 17:33N 40°42' W 074°01'1 0.9
2015-Mar-17 16:33N 40°42' W 074°00'0 0.0
2015-Mar-17 15:33N 40°42' W 074°00'2 1.6
2015-Mar-17 14:33N 40°42' W 074°02'3 2.5
2015-Mar-17 13:33N 40°44' W 074°01'  

Dump ship's entire track history